createdAt,value
2019-03-18T00:00:31.483Z,4.50
2019-03-18T00:02:35.264Z,4.39
2019-03-18T00:04:39.203Z,4.32
2019-03-18T00:06:42.894Z,4.22
2019-03-18T00:08:46.755Z,4.18
2019-03-18T00:10:51.524Z,4.17
2019-03-18T00:12:55.299Z,4.15
2019-03-18T00:15:01.398Z,4.11
2019-03-18T00:17:04.625Z,4.04
2019-03-18T00:19:08.490Z,3.98
2019-03-18T17:46:31.653Z,5.91
2019-03-18T17:48:35.421Z,5.88
2019-03-18T17:50:42.357Z,5.85
2019-03-18T17:52:46.736Z,5.87
2019-03-18T17:54:52.463Z,5.87
2019-03-18T17:57:06.753Z,5.92
2019-03-18T17:59:02.853Z,5.95
2019-03-18T18:01:06.695Z,5.96
2019-03-18T18:03:11.508Z,5.95
2019-03-18T18:05:16.501Z,5.94
2019-03-18T18:07:20.360Z,5.97
2019-03-18T18:09:24.116Z,5.98
2019-03-18T18:11:28.083Z,5.97
2019-03-18T18:13:32.837Z,5.97
2019-03-18T18:15:36.895Z,5.97
2019-03-18T18:17:42.790Z,5.97
2019-03-18T18:19:46.635Z,5.99
2019-03-18T18:21:51.441Z,5.98
2019-03-18T18:23:55.245Z,5.94
2019-03-18T18:25:59.107Z,5.85
2019-03-18T18:28:02.851Z,5.73
2019-03-18T18:30:08.350Z,5.63
2019-03-18T18:32:12.114Z,5.52
2019-03-18T18:34:15.917Z,5.40
2019-03-18T18:36:19.717Z,5.29
2019-03-18T18:38:23.520Z,5.21
2019-03-18T18:40:27.446Z,5.15
2019-03-18T18:42:31.233Z,5.10
2019-03-18T18:44:35.031Z,5.06
2019-03-18T18:46:38.947Z,5.01
2019-03-18T18:48:42.764Z,4.96
2019-03-18T18:57:59.589Z,4.84
2019-03-18T19:00:03.575Z,4.73
2019-03-18T19:02:07.608Z,4.63
2019-03-18T19:04:15.515Z,4.57
2019-03-18T19:06:19.537Z,4.52
2019-03-18T19:08:23.339Z,4.48
2019-03-18T19:10:27.167Z,4.45
2019-03-18T19:12:30.938Z,4.44
2019-03-18T19:14:34.744Z,4.43
2019-03-18T19:16:38.531Z,4.45
2019-03-18T19:18:42.335Z,4.48
2019-03-18T19:20:46.159Z,4.51
2019-03-18T19:22:50.170Z,4.55
2019-03-18T19:24:54.050Z,4.60
2019-03-18T19:26:57.897Z,4.64
2019-03-18T19:29:01.674Z,4.64
2019-03-18T19:31:06.501Z,4.65
2019-03-18T19:33:10.326Z,4.60
2019-03-18T19:35:14.155Z,4.55
2019-03-18T19:37:18.013Z,4.48
2019-03-18T19:39:21.798Z,4.41
2019-03-18T19:41:25.700Z,4.37
2019-03-18T19:43:29.416Z,4.34
2019-03-18T19:45:33.238Z,4.34
2019-03-18T19:48:13.434Z,4.37
2019-03-18T19:50:18.036Z,4.43
2019-03-18T19:52:22.847Z,4.51
2019-03-18T19:54:26.651Z,4.58
2019-03-18T19:56:30.528Z,4.62
2019-03-18T19:58:34.255Z,4.67
2019-03-18T20:00:37.990Z,4.75
2019-03-18T20:02:42.113Z,4.78
2019-03-18T20:04:45.956Z,4.83
2019-03-18T20:06:49.793Z,4.84
2019-03-18T20:08:53.651Z,4.83
2019-03-18T20:11:27.870Z,4.76
2019-03-18T20:13:31.682Z,4.68
2019-03-18T20:15:35.510Z,4.56
2019-03-18T20:17:39.358Z,4.47
2019-03-18T20:19:44.018Z,4.40
2019-03-18T20:21:48.274Z,4.33
2019-03-18T20:24:00.327Z,4.28
2019-03-18T20:25:58.677Z,4.24
2019-03-18T20:28:02.784Z,4.26
2019-03-18T20:30:11.948Z,4.25
2019-03-18T20:32:15.791Z,4.25
2019-03-18T20:34:21.485Z,4.25
2019-03-18T20:36:25.176Z,4.24
2019-03-18T20:38:30.003Z,4.22
2019-03-18T20:40:33.768Z,4.18
2019-03-18T20:42:37.616Z,4.15
2019-03-18T20:44:42.420Z,4.11
2019-03-18T20:46:46.279Z,4.03
2019-03-18T20:48:50.038Z,3.97
2019-03-18T20:50:56.537Z,3.92
2019-03-18T20:52:59.492Z,3.88
2019-03-18T20:55:04.790Z,3.82
2019-03-18T20:57:08.638Z,3.76
2019-03-18T20:59:13.447Z,3.73
2019-03-18T21:01:17.273Z,3.71
2019-03-18T21:03:21.146Z,3.72
2019-03-18T21:05:25.610Z,3.76
2019-03-18T21:07:30.439Z,3.82
2019-03-18T21:09:35.968Z,3.85
2019-03-18T21:11:39.731Z,3.88
2019-03-18T21:15:53.715Z,3.91
2019-03-18T21:17:57.588Z,3.93
2019-03-18T21:20:01.411Z,3.90
2019-03-18T21:22:05.311Z,3.85
2019-03-18T21:24:10.173Z,3.80
2019-03-18T21:26:13.963Z,3.76
2019-03-18T21:31:21.247Z,3.67
2019-03-18T21:33:25.073Z,3.59
2019-03-18T21:35:28.852Z,3.54
2019-03-18T21:37:33.784Z,3.47
2019-03-18T21:39:37.614Z,3.40
2019-03-18T21:41:43.449Z,3.35
2019-03-18T21:43:47.257Z,3.28
2019-03-18T21:45:52.048Z,3.23
2019-03-18T21:47:55.947Z,3.18
2019-03-18T21:50:05.897Z,3.13
2019-03-18T21:52:09.652Z,3.09
2019-03-18T21:54:13.399Z,3.04
2019-03-18T21:56:17.192Z,3.01
2019-03-18T21:58:20.914Z,2.97
2019-03-18T22:00:24.764Z,2.93
2019-03-18T22:05:07.363Z,2.88
2019-03-18T22:07:11.123Z,2.85
2019-03-18T22:09:14.834Z,2.83
2019-03-18T22:11:18.565Z,2.81
2019-03-18T22:13:22.303Z,2.78
2019-03-18T22:15:26.077Z,2.76
2019-03-18T22:17:29.890Z,2.77
2019-03-18T22:19:33.605Z,2.75
2019-03-18T22:21:37.316Z,2.72
2019-03-18T22:23:41.059Z,2.68
2019-03-18T22:28:24.301Z,2.57
2019-03-18T22:30:27.996Z,2.52
2019-03-18T22:32:31.836Z,2.47
2019-03-18T22:34:35.584Z,2.45
2019-03-18T22:36:39.295Z,2.45
2019-03-18T22:38:43.039Z,2.47
2019-03-18T22:40:46.737Z,2.53
2019-03-18T22:42:50.527Z,2.58
2019-03-18T22:44:54.269Z,2.61
2019-03-18T22:46:57.975Z,2.62
2019-03-18T22:49:01.707Z,2.63
2019-03-18T22:51:05.427Z,2.61
2019-03-18T22:53:09.237Z,2.58
2019-03-18T22:55:13.114Z,2.55
2019-03-18T22:57:16.816Z,2.56
2019-03-18T22:59:20.546Z,2.56
2019-03-18T23:01:25.866Z,2.55
2019-03-18T23:03:29.679Z,2.55
2019-03-18T23:05:33.548Z,2.55
2019-03-18T23:07:37.252Z,2.59
2019-03-18T23:09:40.980Z,2.65
2019-03-18T23:11:44.769Z,2.73
2019-03-18T23:13:48.522Z,2.81
2019-03-18T23:15:52.259Z,2.91
2019-03-18T23:17:55.969Z,3.00
2019-03-18T23:19:59.696Z,3.09
2019-03-18T23:22:03.401Z,3.16
2019-03-18T23:24:07.172Z,3.24
2019-03-18T23:26:10.878Z,3.29
2019-03-18T23:28:14.660Z,3.34
2019-03-18T23:30:20.020Z,3.33
2019-03-18T23:32:23.774Z,3.35
2019-03-18T23:34:27.500Z,3.37
2019-03-18T23:36:31.256Z,3.37
2019-03-18T23:38:34.986Z,3.33
2019-03-18T23:40:38.778Z,3.26
2019-03-18T23:42:42.595Z,3.18
2019-03-18T23:44:46.322Z,3.13
2019-03-18T23:46:50.045Z,3.09
2019-03-18T23:48:54.293Z,3.05
2019-03-18T23:50:58.001Z,3.01
2019-03-18T23:53:01.706Z,2.98
2019-03-18T23:55:17.821Z,2.95
2019-03-18T23:57:12.066Z,2.92
2019-03-18T23:59:15.789Z,2.86
